sensor_id;sensor_type;location;lat;lon;timestamp;P1;durP1;ratioP1;P2;durP2;ratioP2
27979;SDS011;15315;50.836;4.430;2023-10-13T00:04:54;42.70;;;21.70;;
27979;SDS011;15315;50.836;4.430;2023-10-13T00:14:56;38.13;;;22.23;;
27979;SDS011;15315;50.836;4.430;2023-10-13T00:25:02;43.20;;;24.23;;
27979;SDS011;15315;50.836;4.430;2023-10-13T00:35:03;44.67;;;24.20;;
27979;SDS011;15315;50.836;4.430;2023-10-13T00:45:05;49.60;;;26.33;;
27979;SDS011;15315;50.836;4.430;2023-10-13T00:55:06;52.83;;;29.08;;
27979;SDS011;15315;50.836;4.430;2023-10-13T01:05:08;51.53;;;29.33;;
27979;SDS011;15315;50.836;4.430;2023-10-13T01:15:19;54.08;;;28.67;;
27979;SDS011;15315;50.836;4.430;2023-10-13T01:25:29;45.80;;;26.35;;
27979;SDS011;15315;50.836;4.430;2023-10-13T01:35:29;51.53;;;25.52;;
27979;SDS011;15315;50.836;4.430;2023-10-13T01:45:37;39.22;;;21.48;;
27979;SDS011;15315;50.836;4.430;2023-10-13T01:55:46;37.45;;;19.95;;
27979;SDS011;15315;50.836;4.430;2023-10-13T02:05:47;34.15;;;18.88;;
27979;SDS011;15315;50.836;4.430;2023-10-13T02:15:49;33.20;;;17.40;;
27979;SDS011;15315;50.836;4.430;2023-10-13T02:25:53;35.33;;;17.23;;
27979;SDS011;15315;50.836;4.430;2023-10-13T02:36:01;26.45;;;15.57;;
27979;SDS011;15315;50.836;4.430;2023-10-13T02:46:06;30.80;;;15.93;;
27979;SDS011;15315;50.836;4.430;2023-10-13T02:56:06;32.28;;;15.73;;
27979;SDS011;15315;50.836;4.430;2023-10-13T03:06:07;37.80;;;15.70;;
27979;SDS011;15315;50.836;4.430;2023-10-13T03:16:11;34.17;;;15.15;;
27979;SDS011;15315;50.836;4.430;2023-10-13T03:26:15;37.63;;;13.88;;
27979;SDS011;15315;50.836;4.430;2023-10-13T03:36:19;29.33;;;13.57;;
27979;SDS011;15315;50.836;4.430;2023-10-13T03:46:38;36.08;;;14.05;;
27979;SDS011;15315;50.836;4.430;2023-10-13T03:56:41;30.05;;;13.75;;
27979;SDS011;15315;50.836;4.430;2023-10-13T04:06:41;23.85;;;11.68;;
27979;SDS011;15315;50.836;4.430;2023-10-13T04:16:51;30.65;;;11.73;;
27979;SDS011;15315;50.836;4.430;2023-10-13T04:26:54;27.75;;;10.88;;
27979;SDS011;15315;50.836;4.430;2023-10-13T04:37:12;29.92;;;10.70;;
27979;SDS011;15315;50.836;4.430;2023-10-13T04:47:47;28.98;;;12.13;;
27979;SDS011;15315;50.836;4.430;2023-10-13T04:57:57;27.77;;;11.35;;
27979;SDS011;15315;50.836;4.430;2023-10-13T05:08:10;28.85;;;11.68;;
27979;SDS011;15315;50.836;4.430;2023-10-13T05:18:30;32.83;;;10.75;;
27979;SDS011;15315;50.836;4.430;2023-10-13T05:28:49;24.42;;;9.85;;
27979;SDS011;15315;50.836;4.430;2023-10-13T05:39:08;28.73;;;12.65;;
27979;SDS011;15315;50.836;4.430;2023-10-13T05:49:27;31.40;;;10.35;;
27979;SDS011;15315;50.836;4.430;2023-10-13T05:59:46;29.20;;;10.10;;
27979;SDS011;15315;50.836;4.430;2023-10-13T06:10:05;29.20;;;9.45;;
27979;SDS011;15315;50.836;4.430;2023-10-13T06:20:25;27.88;;;9.00;;
27979;SDS011;15315;50.836;4.430;2023-10-13T06:30:52;28.85;;;8.65;;
27979;SDS011;15315;50.836;4.430;2023-10-13T06:40:57;24.63;;;7.90;;
27979;SDS011;15315;50.836;4.430;2023-10-13T06:50:57;19.25;;;7.47;;
27979;SDS011;15315;50.836;4.430;2023-10-13T07:01:06;25.55;;;8.00;;
27979;SDS011;15315;50.836;4.430;2023-10-13T07:11:07;19.10;;;7.60;;
27979;SDS011;15315;50.836;4.430;2023-10-13T07:21:18;18.30;;;7.03;;
27979;SDS011;15315;50.836;4.430;2023-10-13T07:31:29;19.75;;;7.57;;
27979;SDS011;15315;50.836;4.430;2023-10-13T07:41:30;27.67;;;6.47;;
27979;SDS011;15315;50.836;4.430;2023-10-13T07:51:32;12.75;;;6.32;;
27979;SDS011;15315;50.836;4.430;2023-10-13T08:01:34;30.38;;;7.20;;
27979;SDS011;15315;50.836;4.430;2023-10-13T08:11:35;19.27;;;7.57;;
27979;SDS011;15315;50.836;4.430;2023-10-13T08:21:37;21.13;;;6.32;;
27979;SDS011;15315;50.836;4.430;2023-10-13T08:31:37;21.05;;;7.25;;
27979;SDS011;15315;50.836;4.430;2023-10-13T08:41:41;21.70;;;7.20;;
27979;SDS011;15315;50.836;4.430;2023-10-13T08:51:54;25.00;;;6.32;;
27979;SDS011;15315;50.836;4.430;2023-10-13T09:02:26;16.73;;;6.63;;
27979;SDS011;15315;50.836;4.430;2023-10-13T09:12:53;22.83;;;6.57;;
27979;SDS011;15315;50.836;4.430;2023-10-13T09:23:07;23.17;;;6.95;;
27979;SDS011;15315;50.836;4.430;2023-10-13T09:33:13;16.75;;;6.68;;
27979;SDS011;15315;50.836;4.430;2023-10-13T09:43:17;20.03;;;7.37;;
27979;SDS011;15315;50.836;4.430;2023-10-13T09:53:18;17.73;;;7.25;;
27979;SDS011;15315;50.836;4.430;2023-10-13T10:03:19;15.75;;;6.50;;
27979;SDS011;15315;50.836;4.430;2023-10-13T10:13:35;32.78;;;7.82;;
27979;SDS011;15315;50.836;4.430;2023-10-13T10:23:48;32.65;;;7.10;;
27979;SDS011;15315;50.836;4.430;2023-10-13T10:33:53;27.58;;;7.22;;
27979;SDS011;15315;50.836;4.430;2023-10-13T10:43:55;29.30;;;7.53;;
27979;SDS011;15315;50.836;4.430;2023-10-13T10:53:55;21.02;;;7.32;;
27979;SDS011;15315;50.836;4.430;2023-10-13T11:03:58;24.00;;;7.55;;
27979;SDS011;15315;50.836;4.430;2023-10-13T11:14:08;19.83;;;7.13;;
27979;SDS011;15315;50.836;4.430;2023-10-13T11:24:23;25.20;;;7.45;;
27979;SDS011;15315;50.836;4.430;2023-10-13T11:34:23;29.07;;;7.40;;
27979;SDS011;15315;50.836;4.430;2023-10-13T11:44:24;24.58;;;7.53;;
27979;SDS011;15315;50.836;4.430;2023-10-13T11:54:25;32.67;;;7.82;;
27979;SDS011;15315;50.836;4.430;2023-10-13T12:04:27;28.70;;;7.95;;
27979;SDS011;15315;50.836;4.430;2023-10-13T12:14:33;25.15;;;6.65;;
27979;SDS011;15315;50.836;4.430;2023-10-13T12:24:52;27.63;;;7.22;;
27979;SDS011;15315;50.836;4.430;2023-10-13T12:34:55;24.80;;;6.97;;
27979;SDS011;15315;50.836;4.430;2023-10-13T12:45:02;19.50;;;6.13;;
27979;SDS011;15315;50.836;4.430;2023-10-13T12:55:21;19.38;;;6.00;;
27979;SDS011;15315;50.836;4.430;2023-10-13T13:05:24;16.63;;;6.40;;
27979;SDS011;15315;50.836;4.430;2023-10-13T13:15:28;18.67;;;6.20;;
27979;SDS011;15315;50.836;4.430;2023-10-13T13:25:29;21.17;;;7.20;;
27979;SDS011;15315;50.836;4.430;2023-10-13T13:35:30;18.65;;;6.57;;
27979;SDS011;15315;50.836;4.430;2023-10-13T13:45:34;23.13;;;7.05;;
27979;SDS011;15315;50.836;4.430;2023-10-13T13:55:41;19.95;;;6.75;;
27979;SDS011;15315;50.836;4.430;2023-10-13T14:05:42;17.10;;;5.93;;
27979;SDS011;15315;50.836;4.430;2023-10-13T14:15:43;19.35;;;6.05;;
27979;SDS011;15315;50.836;4.430;2023-10-13T14:25:44;17.35;;;6.40;;
27979;SDS011;15315;50.836;4.430;2023-10-13T14:35:46;16.35;;;6.00;;
27979;SDS011;15315;50.836;4.430;2023-10-13T14:45:47;24.83;;;6.32;;
27979;SDS011;15315;50.836;4.430;2023-10-13T14:55:47;14.70;;;5.78;;
27979;SDS011;15315;50.836;4.430;2023-10-13T15:05:48;23.03;;;6.83;;
27979;SDS011;15315;50.836;4.430;2023-10-13T15:15:48;20.42;;;7.22;;
27979;SDS011;15315;50.836;4.430;2023-10-13T15:25:48;16.42;;;6.22;;
27979;SDS011;15315;50.836;4.430;2023-10-13T15:35:49;24.92;;;7.38;;
27979;SDS011;15315;50.836;4.430;2023-10-13T15:45:51;16.60;;;6.32;;
27979;SDS011;15315;50.836;4.430;2023-10-13T15:55:52;18.13;;;5.80;;
27979;SDS011;15315;50.836;4.430;2023-10-13T16:05:52;19.65;;;5.47;;
27979;SDS011;15315;50.836;4.430;2023-10-13T16:15:52;18.10;;;6.00;;
27979;SDS011;15315;50.836;4.430;2023-10-13T16:25:54;21.63;;;6.40;;
27979;SDS011;15315;50.836;4.430;2023-10-13T16:35:56;20.17;;;6.90;;
27979;SDS011;15315;50.836;4.430;2023-10-13T16:45:57;15.45;;;6.97;;
27979;SDS011;15315;50.836;4.430;2023-10-13T16:56:00;14.82;;;6.82;;
27979;SDS011;15315;50.836;4.430;2023-10-13T17:06:03;15.63;;;6.65;;
27979;SDS011;15315;50.836;4.430;2023-10-13T17:16:17;17.58;;;6.97;;
27979;SDS011;15315;50.836;4.430;2023-10-13T17:26:19;18.67;;;7.18;;
27979;SDS011;15315;50.836;4.430;2023-10-13T17:36:22;18.55;;;7.82;;
27979;SDS011;15315;50.836;4.430;2023-10-13T17:46:23;24.20;;;7.45;;
27979;SDS011;15315;50.836;4.430;2023-10-13T17:56:24;16.35;;;6.78;;
27979;SDS011;15315;50.836;4.430;2023-10-13T18:06:25;20.80;;;6.33;;
27979;SDS011;15315;50.836;4.430;2023-10-13T18:16:25;16.38;;;6.95;;
27979;SDS011;15315;50.836;4.430;2023-10-13T18:26:25;22.58;;;9.57;;
27979;SDS011;15315;50.836;4.430;2023-10-13T18:36:26;24.17;;;8.63;;
27979;SDS011;15315;50.836;4.430;2023-10-13T18:46:30;25.43;;;8.80;;
27979;SDS011;15315;50.836;4.430;2023-10-13T18:56:30;22.15;;;9.73;;
27979;SDS011;15315;50.836;4.430;2023-10-13T19:06:34;26.90;;;8.57;;
27979;SDS011;15315;50.836;4.430;2023-10-13T19:16:34;25.08;;;8.27;;
27979;SDS011;15315;50.836;4.430;2023-10-13T19:26:35;17.63;;;8.02;;
27979;SDS011;15315;50.836;4.430;2023-10-13T19:36:37;15.65;;;8.23;;
27979;SDS011;15315;50.836;4.430;2023-10-13T19:46:37;18.42;;;6.93;;
27979;SDS011;15315;50.836;4.430;2023-10-13T19:56:37;19.73;;;7.65;;
27979;SDS011;15315;50.836;4.430;2023-10-13T20:06:39;21.98;;;8.23;;
27979;SDS011;15315;50.836;4.430;2023-10-13T20:16:42;19.77;;;6.60;;
27979;SDS011;15315;50.836;4.430;2023-10-13T20:26:44;26.50;;;6.82;;
27979;SDS011;15315;50.836;4.430;2023-10-13T20:36:47;26.17;;;7.43;;
27979;SDS011;15315;50.836;4.430;2023-10-13T20:46:47;20.95;;;7.45;;
27979;SDS011;15315;50.836;4.430;2023-10-13T20:56:47;24.33;;;7.80;;
27979;SDS011;15315;50.836;4.430;2023-10-13T21:06:47;17.10;;;7.70;;
27979;SDS011;15315;50.836;4.430;2023-10-13T21:16:49;26.33;;;8.20;;
27979;SDS011;15315;50.836;4.430;2023-10-13T21:26:52;18.42;;;7.55;;
27979;SDS011;15315;50.836;4.430;2023-10-13T21:36:52;19.60;;;6.97;;
27979;SDS011;15315;50.836;4.430;2023-10-13T21:46:52;22.92;;;7.72;;
27979;SDS011;15315;50.836;4.430;2023-10-13T21:56:53;24.08;;;8.50;;
27979;SDS011;15315;50.836;4.430;2023-10-13T22:06:53;23.48;;;7.38;;
27979;SDS011;15315;50.836;4.430;2023-10-13T22:16:54;17.73;;;5.95;;
27979;SDS011;15315;50.836;4.430;2023-10-13T22:26:54;17.75;;;5.15;;
27979;SDS011;15315;50.836;4.430;2023-10-13T22:36:54;20.05;;;4.55;;
27979;SDS011;15315;50.836;4.430;2023-10-13T22:46:55;12.55;;;3.88;;
27979;SDS011;15315;50.836;4.430;2023-10-13T22:56:55;13.95;;;3.53;;
27979;SDS011;15315;50.836;4.430;2023-10-13T23:06:56;12.23;;;2.65;;
27979;SDS011;15315;50.836;4.430;2023-10-13T23:16:58;6.97;;;1.88;;
27979;SDS011;15315;50.836;4.430;2023-10-13T23:27:03;12.45;;;1.88;;
27979;SDS011;15315;50.836;4.430;2023-10-13T23:37:05;15.35;;;2.38;;
27979;SDS011;15315;50.836;4.430;2023-10-13T23:47:10;15.25;;;2.83;;
27979;SDS011;15315;50.836;4.430;2023-10-13T23:57:10;11.18;;;2.90;;
